createdAt,value
2018-04-15T00:01:49.207Z,16.80
2018-04-15T00:04:16.815Z,19.23
2018-04-15T00:06:44.465Z,20.23
2018-04-15T00:09:12.112Z,21.47
2018-04-15T00:11:39.795Z,21.73
2018-04-15T00:14:07.396Z,23.07
2018-04-15T00:16:35.026Z,22.70
2018-04-15T00:19:02.629Z,22.53
2018-04-15T00:21:30.241Z,22.70
2018-04-15T00:23:57.851Z,21.90
2018-04-15T00:26:25.445Z,24.27
2018-04-15T00:28:53.035Z,25.73
2018-04-15T00:31:20.648Z,25.80
2018-04-15T00:33:48.241Z,26.37
2018-04-15T00:36:15.862Z,24.23
2018-04-15T00:38:43.488Z,23.97
2018-04-15T00:41:11.110Z,25.50
2018-04-15T00:43:38.717Z,26.50
2018-04-15T00:46:06.319Z,28.17
2018-04-15T00:48:33.957Z,26.03
2018-04-15T00:51:01.557Z,26.67
2018-04-15T00:53:40.942Z,27.10
2018-04-15T00:56:08.584Z,27.50
2018-04-15T00:58:36.195Z,24.83
2018-04-15T01:01:03.813Z,24.17
2018-04-15T01:03:31.425Z,27.40
2018-04-15T01:05:59.065Z,25.70
2018-04-15T01:08:26.661Z,26.33
2018-04-15T01:10:54.277Z,25.30
2018-04-15T01:13:21.888Z,26.43
2018-04-15T01:15:49.521Z,25.83
2018-04-15T01:18:17.151Z,25.57
2018-04-15T01:20:44.769Z,24.53
2018-04-15T01:23:12.364Z,25.67
2018-04-15T01:25:39.957Z,22.60
2018-04-15T01:28:07.572Z,22.37
2018-04-15T01:30:35.217Z,22.43
2018-04-15T01:33:02.801Z,21.57
2018-04-15T01:35:30.406Z,22.77
2018-04-15T01:37:58.037Z,21.63
2018-04-15T01:40:25.677Z,22.20
2018-04-15T01:42:53.380Z,20.60
2018-04-15T01:45:21.047Z,20.83
2018-04-15T01:47:48.717Z,20.20
2018-04-15T01:50:16.329Z,20.63
2018-04-15T01:52:43.957Z,21.90
2018-04-15T01:55:11.597Z,21.50
2018-04-15T01:57:39.197Z,21.70
2018-04-15T02:00:06.785Z,25.60
2018-04-15T02:02:34.387Z,26.33
2018-04-15T02:05:01.989Z,28.87
2018-04-15T02:07:29.585Z,31.33
2018-04-15T02:09:57.181Z,33.33
2018-04-15T02:12:24.802Z,33.60
2018-04-15T02:14:52.396Z,34.73
2018-04-15T02:17:20.033Z,31.70
2018-04-15T02:19:47.668Z,32.77
2018-04-15T02:22:15.253Z,31.43
2018-04-15T02:24:42.845Z,32.13
2018-04-15T02:27:10.511Z,34.17
2018-04-15T02:29:38.133Z,36.40
2018-04-15T02:32:05.742Z,33.93
2018-04-15T02:34:33.336Z,36.27
2018-04-15T02:37:00.969Z,34.43
2018-04-15T02:39:28.615Z,34.00
2018-04-15T02:41:56.280Z,31.47
2018-04-15T02:44:23.877Z,30.90
2018-04-15T02:46:51.517Z,27.73
2018-04-15T02:49:19.102Z,28.50
2018-04-15T02:51:46.711Z,29.00
2018-04-15T02:54:14.341Z,27.43
2018-04-15T02:56:41.947Z,25.73
2018-04-15T02:59:09.541Z,28.80
2018-04-15T03:01:37.146Z,27.43
2018-04-15T03:04:04.827Z,28.03
2018-04-15T03:06:32.461Z,25.83
2018-04-15T03:09:00.054Z,26.33
2018-04-15T03:11:27.654Z,26.53
2018-04-15T03:13:55.253Z,28.00
2018-04-15T03:16:22.901Z,27.50
2018-04-15T03:18:50.503Z,26.37
2018-04-15T03:21:18.102Z,26.83
2018-04-15T03:23:45.698Z,27.07
2018-04-15T03:26:13.314Z,27.80
2018-04-15T03:28:40.901Z,28.90
2018-04-15T03:31:08.533Z,28.27
2018-04-15T03:33:36.132Z,27.47
2018-04-15T03:36:03.741Z,29.27
2018-04-15T03:38:31.349Z,29.83
2018-04-15T03:40:58.941Z,29.90
2018-04-15T03:43:26.562Z,28.50
2018-04-15T03:45:54.189Z,28.67
2018-04-15T03:48:21.792Z,24.13
2018-04-15T03:50:49.393Z,21.30
2018-04-15T03:53:16.985Z,21.57
2018-04-15T03:55:44.593Z,20.80
2018-04-15T03:58:12.197Z,21.30
2018-04-15T04:00:39.796Z,21.00
2018-04-15T04:03:07.416Z,20.00
2018-04-15T04:05:35.009Z,20.00
2018-04-15T04:08:02.611Z,21.30
2018-04-15T04:10:30.208Z,21.83
2018-04-15T04:12:57.827Z,21.50
2018-04-15T04:15:25.453Z,21.27
2018-04-15T04:18:04.768Z,21.40
2018-04-15T04:20:44.092Z,21.40
2018-04-15T04:23:23.356Z,20.70
2018-04-15T04:26:03.621Z,21.00
2018-04-15T04:28:31.217Z,22.10
2018-04-15T04:30:58.834Z,23.73
2018-04-15T04:33:26.439Z,25.80
2018-04-15T04:35:54.061Z,24.77
2018-04-15T04:38:21.661Z,24.73
2018-04-15T04:40:49.328Z,24.30
2018-04-15T04:43:16.943Z,27.93
2018-04-15T04:45:44.550Z,25.80
2018-04-15T04:48:12.169Z,26.97
2018-04-15T04:50:39.757Z,27.63
2018-04-15T04:53:07.390Z,30.63
2018-04-15T04:55:35.013Z,30.27
2018-04-15T04:58:02.613Z,32.00
2018-04-15T05:00:30.275Z,30.67
2018-04-15T05:02:57.868Z,31.77
2018-04-15T05:05:25.467Z,30.73
2018-04-15T05:07:53.127Z,31.40
2018-04-15T05:10:20.721Z,31.30
2018-04-15T05:12:48.361Z,30.50
2018-04-15T05:15:15.953Z,30.33
2018-04-15T05:17:43.550Z,33.27
2018-04-15T05:20:11.196Z,33.00
2018-04-15T05:22:38.797Z,33.57
2018-04-15T05:25:06.441Z,32.60
2018-04-15T05:27:34.077Z,32.70
2018-04-15T05:30:01.713Z,31.90
2018-04-15T05:32:29.315Z,32.13
2018-04-15T05:34:56.961Z,33.67
2018-04-15T05:37:24.561Z,34.47
2018-04-15T05:39:52.165Z,35.40
2018-04-15T05:42:19.765Z,34.93
2018-04-15T05:44:47.413Z,35.43
2018-04-15T05:47:14.996Z,34.80
2018-04-15T05:49:42.613Z,33.30
2018-04-15T05:52:10.243Z,32.93
2018-04-15T05:54:37.865Z,34.40
2018-04-15T05:57:05.492Z,33.80
2018-04-15T05:59:33.112Z,34.40
2018-04-15T06:02:00.709Z,36.10
2018-04-15T06:04:28.297Z,34.33
2018-04-15T06:06:55.930Z,36.27
2018-04-15T06:09:23.526Z,35.17
2018-04-15T06:11:51.121Z,32.83
2018-04-15T06:14:18.721Z,36.03
2018-04-15T06:16:46.321Z,34.70
2018-04-15T06:19:13.995Z,34.43
2018-04-15T06:21:41.621Z,35.03
2018-04-15T06:24:09.219Z,34.83
2018-04-15T06:26:36.857Z,34.60
2018-04-15T06:29:04.489Z,33.67
2018-04-15T06:31:32.097Z,30.67
2018-04-15T06:33:59.689Z,36.60
2018-04-15T06:36:27.321Z,30.57
2018-04-15T06:38:54.918Z,31.57
2018-04-15T06:41:22.529Z,33.73
2018-04-15T06:43:50.121Z,31.03
2018-04-15T06:46:18.470Z,34.37
2018-04-15T06:48:46.073Z,33.27
2018-04-15T06:51:13.757Z,32.60
2018-04-15T06:53:41.365Z,28.80
2018-04-15T06:56:09.001Z,26.50
2018-04-15T06:58:36.638Z,28.67
2018-04-15T07:01:04.238Z,28.17
2018-04-15T07:03:31.841Z,28.27
2018-04-15T07:05:59.469Z,28.03
2018-04-15T07:08:27.057Z,28.67
2018-04-15T07:10:54.661Z,29.07
2018-04-15T07:13:22.306Z,29.27
2018-04-15T07:15:49.927Z,29.70
2018-04-15T07:18:17.541Z,32.70
2018-04-15T07:20:45.161Z,33.20
2018-04-15T07:23:12.758Z,35.40
2018-04-15T07:25:40.395Z,38.50
2018-04-15T07:28:08.026Z,36.37
2018-04-15T07:30:35.636Z,35.27
2018-04-15T07:33:03.248Z,30.60
2018-04-15T07:35:30.929Z,30.10
2018-04-15T07:37:58.581Z,32.67
2018-04-15T07:40:26.192Z,33.87
2018-04-15T07:42:53.806Z,33.33
2018-04-15T07:45:21.460Z,31.43
2018-04-15T07:47:49.286Z,30.10
2018-04-15T07:50:17.298Z,28.07
2018-04-15T07:52:44.919Z,28.87
2018-04-15T07:55:12.530Z,33.37
2018-04-15T07:57:40.129Z,28.93
2018-04-15T08:00:07.745Z,31.23
2018-04-15T08:02:35.386Z,30.07
2018-04-15T08:05:02.984Z,30.47
2018-04-15T08:07:30.615Z,29.47
2018-04-15T08:09:58.257Z,30.00
2018-04-15T08:12:25.892Z,30.80
2018-04-15T08:14:53.513Z,30.67
2018-04-15T08:17:21.114Z,26.40
2018-04-15T08:19:48.769Z,26.43
2018-04-15T08:22:16.377Z,28.70
2018-04-15T08:24:43.969Z,25.77
2018-04-15T08:27:11.620Z,27.80
2018-04-15T08:29:39.229Z,26.47
2018-04-15T08:32:06.840Z,27.70
2018-04-15T08:34:34.436Z,23.33
2018-04-15T08:37:02.069Z,24.07
2018-04-15T08:39:29.661Z,23.47
2018-04-15T08:41:57.260Z,25.07
2018-04-15T08:44:24.940Z,23.20
2018-04-15T08:46:52.540Z,23.00
2018-04-15T08:49:20.155Z,22.50
2018-04-15T08:51:47.757Z,23.33
2018-04-15T08:54:15.382Z,24.17
2018-04-15T08:56:42.976Z,23.03
2018-04-15T08:59:10.569Z,23.03
2018-04-15T09:01:38.177Z,21.67
2018-04-15T09:04:05.769Z,23.70
2018-04-15T09:06:33.396Z,23.83
2018-04-15T09:09:01.015Z,22.93
2018-04-15T09:11:28.618Z,24.23
2018-04-15T09:13:56.250Z,22.20
2018-04-15T09:16:23.837Z,23.40
2018-04-15T09:18:51.441Z,23.90
2018-04-15T09:21:19.041Z,25.43
2018-04-15T09:23:46.675Z,24.10
2018-04-15T09:26:14.261Z,29.47
2018-04-15T09:28:41.873Z,24.30
2018-04-15T09:31:12.225Z,23.50
2018-04-15T09:33:39.819Z,23.03
2018-04-15T09:36:07.429Z,23.83
2018-04-15T09:38:35.033Z,22.40
2018-04-15T09:41:02.672Z,23.30
2018-04-15T09:43:30.292Z,25.03
2018-04-15T09:45:57.888Z,23.13
2018-04-15T09:48:25.490Z,23.13
2018-04-15T09:50:53.121Z,23.37
2018-04-15T09:53:20.721Z,22.63
2018-04-15T09:55:48.318Z,23.57
2018-04-15T09:58:15.949Z,23.03
2018-04-15T10:00:43.573Z,24.10
2018-04-15T10:03:11.233Z,22.20
2018-04-15T10:05:38.905Z,23.67
2018-04-15T10:08:06.538Z,24.43
2018-04-15T10:10:34.180Z,21.57
2018-04-15T10:13:01.786Z,21.97
2018-04-15T10:15:29.453Z,22.17
2018-04-15T10:17:57.077Z,20.47
2018-04-15T10:20:24.691Z,22.27
2018-04-15T10:22:52.320Z,23.40
2018-04-15T10:25:20.016Z,23.03
2018-04-15T10:27:47.613Z,22.80
2018-04-15T10:30:15.281Z,23.53
2018-04-15T10:32:42.923Z,24.57
2018-04-15T10:35:10.568Z,21.97
2018-04-15T10:37:38.181Z,21.20
2018-04-15T10:40:05.851Z,21.50
2018-04-15T10:42:33.578Z,21.47
2018-04-15T10:45:01.175Z,21.80
2018-04-15T10:47:28.757Z,20.97
2018-04-15T10:49:56.404Z,21.03
2018-04-15T10:52:24.009Z,21.23
2018-04-15T10:54:51.597Z,22.00
2018-04-15T10:57:19.219Z,20.93
2018-04-15T10:59:46.814Z,22.23
2018-04-15T11:02:14.410Z,21.37
2018-04-15T11:04:42.041Z,22.03
2018-04-15T11:07:09.649Z,21.67
2018-04-15T11:09:37.251Z,22.40
2018-04-15T11:12:04.849Z,21.73
2018-04-15T11:14:32.450Z,22.17
2018-04-15T11:17:00.049Z,21.90
2018-04-15T11:19:27.649Z,22.17
2018-04-15T11:21:55.305Z,21.67
2018-04-15T11:24:22.912Z,21.37
2018-04-15T11:26:50.535Z,21.67
2018-04-15T11:29:18.129Z,21.83
2018-04-15T11:31:45.730Z,23.13
2018-04-15T11:34:13.342Z,22.10
2018-04-15T11:36:40.975Z,21.33
2018-04-15T11:39:08.581Z,21.13
2018-04-15T11:41:36.169Z,22.17
2018-04-15T11:44:03.783Z,22.67
2018-04-15T11:46:31.389Z,22.80
2018-04-15T11:48:59.031Z,22.47
2018-04-15T11:51:26.662Z,23.93
2018-04-15T11:53:54.262Z,23.33
2018-04-15T11:56:21.898Z,22.30
2018-04-15T11:58:49.581Z,23.47
2018-04-15T12:01:17.185Z,22.30
2018-04-15T12:03:44.842Z,23.57
2018-04-15T12:06:12.451Z,21.93
2018-04-15T12:08:40.041Z,21.17
2018-04-15T12:11:07.679Z,21.77
2018-04-15T12:13:35.286Z,21.83
2018-04-15T12:16:03.730Z,21.20
2018-04-15T12:18:31.761Z,22.27
2018-04-15T12:20:59.370Z,23.57
2018-04-15T12:23:27.001Z,22.00
2018-04-15T12:25:54.627Z,23.00
2018-04-15T12:28:22.218Z,23.33
2018-04-15T12:30:53.734Z,23.20
2018-04-15T12:33:21.338Z,21.83
2018-04-15T12:35:48.968Z,22.10
2018-04-15T12:38:16.657Z,21.37
2018-04-15T12:40:44.390Z,22.53
2018-04-15T12:43:12.009Z,22.53
2018-04-15T12:45:40.125Z,23.07
2018-04-15T12:48:07.772Z,22.03
2018-04-15T12:50:35.380Z,21.57
2018-04-15T12:53:02.990Z,19.97
2018-04-15T12:55:30.637Z,21.53
2018-04-15T12:57:58.237Z,21.97
2018-04-15T13:00:25.849Z,22.10
2018-04-15T13:02:53.441Z,23.60
2018-04-15T13:05:21.073Z,23.93
2018-04-15T13:07:48.677Z,21.97
2018-04-15T13:10:16.929Z,21.97
2018-04-15T13:12:44.558Z,23.13
2018-04-15T13:15:12.181Z,23.00
2018-04-15T13:17:39.794Z,22.17
2018-04-15T13:20:07.397Z,22.27
2018-04-15T13:22:34.997Z,22.23
2018-04-15T13:25:02.629Z,24.13
2018-04-15T13:27:30.266Z,22.57
2018-04-15T13:29:57.862Z,22.33
2018-04-15T13:32:25.477Z,28.77
2018-04-15T13:34:53.085Z,30.77
2018-04-15T13:37:20.677Z,29.83
2018-04-15T13:39:48.281Z,31.30
2018-04-15T13:42:15.897Z,30.97
2018-04-15T13:44:43.551Z,34.40
2018-04-15T13:47:11.173Z,32.80
2018-04-15T13:49:38.770Z,31.73
2018-04-15T13:52:06.453Z,32.57
2018-04-15T13:54:34.072Z,31.43
2018-04-15T13:57:01.683Z,33.97
2018-04-15T13:59:29.317Z,33.23
2018-04-15T14:01:56.915Z,33.63
2018-04-15T14:04:24.514Z,32.93
2018-04-15T14:06:52.116Z,33.97
2018-04-15T14:09:19.833Z,32.00
2018-04-15T14:11:47.494Z,33.77
2018-04-15T14:14:15.086Z,30.60
2018-04-15T14:16:42.725Z,32.63
2018-04-15T14:19:10.324Z,32.13
2018-04-15T14:21:37.921Z,34.20
2018-04-15T14:24:05.599Z,33.67
2018-04-15T14:26:33.242Z,33.73
2018-04-15T14:29:00.849Z,33.37
2018-04-15T14:31:28.501Z,34.07
2018-04-15T14:33:56.099Z,34.53
2018-04-15T14:36:23.699Z,32.90
2018-04-15T14:38:51.333Z,32.40
2018-04-15T14:41:18.966Z,32.70
2018-04-15T14:43:46.561Z,34.53
2018-04-15T14:46:14.210Z,32.53
2018-04-15T14:48:41.817Z,34.13
2018-04-15T14:51:09.415Z,33.70
2018-04-15T14:53:37.021Z,32.60
2018-04-15T14:56:04.653Z,34.30
2018-04-15T14:58:32.265Z,34.13
2018-04-15T15:00:59.870Z,35.70
2018-04-15T15:03:27.489Z,34.97
2018-04-15T15:05:55.146Z,35.97
2018-04-15T15:08:22.831Z,36.67
2018-04-15T15:10:50.425Z,36.03
2018-04-15T15:13:18.124Z,36.30
2018-04-15T15:15:45.767Z,37.57
2018-04-15T15:18:13.442Z,36.33
2018-04-15T15:20:41.056Z,38.10
2018-04-15T15:23:08.714Z,37.90
2018-04-15T15:25:36.365Z,38.07
2018-04-15T15:28:04.098Z,38.70
2018-04-15T15:30:31.718Z,36.73
2018-04-15T15:32:59.439Z,38.20
2018-04-15T15:35:27.068Z,38.63
2018-04-15T15:37:54.677Z,38.83
2018-04-15T15:40:22.354Z,40.20
2018-04-15T15:42:50.109Z,40.17
2018-04-15T15:45:17.773Z,39.63
2018-04-15T15:47:45.481Z,37.47
2018-04-15T15:50:13.101Z,42.70
2018-04-15T15:52:40.739Z,38.97
2018-04-15T15:55:08.352Z,38.63
2018-04-15T15:57:35.986Z,38.93
2018-04-15T16:00:03.672Z,39.43
2018-04-15T16:02:31.303Z,37.80
2018-04-15T16:04:58.904Z,38.77
2018-04-15T16:07:26.512Z,38.03
2018-04-15T16:09:54.117Z,37.30
2018-04-15T16:12:21.719Z,39.70
2018-04-15T16:14:49.384Z,37.80
2018-04-15T16:17:16.982Z,39.97
2018-04-15T16:19:44.589Z,40.30
2018-04-15T16:22:12.194Z,39.40
2018-04-15T16:24:39.800Z,40.47
2018-04-15T16:27:08.105Z,38.40
2018-04-15T16:29:35.706Z,38.93
2018-04-15T16:32:03.384Z,39.87
2018-04-15T16:34:30.995Z,38.37
2018-04-15T16:36:58.626Z,38.00
2018-04-15T16:39:26.225Z,38.20
2018-04-15T16:41:53.817Z,37.57
2018-04-15T16:44:21.449Z,38.70
2018-04-15T16:46:49.101Z,38.10
2018-04-15T16:49:16.706Z,38.77
2018-04-15T16:51:44.311Z,38.97
2018-04-15T16:54:11.917Z,39.67
2018-04-15T16:56:39.517Z,39.47
2018-04-15T16:59:07.126Z,40.63
2018-04-15T17:01:34.725Z,39.17
2018-04-15T17:04:02.383Z,40.27
2018-04-15T17:06:29.998Z,40.80
2018-04-15T17:08:57.611Z,40.43
2018-04-15T17:11:25.225Z,39.70
2018-04-15T17:13:52.817Z,41.37
2018-04-15T17:16:20.472Z,38.43
2018-04-15T17:18:48.093Z,40.70
2018-04-15T17:21:15.703Z,41.97
2018-04-15T17:23:43.323Z,40.33
2018-04-15T17:26:10.996Z,40.90
2018-04-15T17:28:42.328Z,40.77
2018-04-15T17:31:09.925Z,44.77
2018-04-15T17:33:37.528Z,42.03
2018-04-15T17:36:05.149Z,42.03
2018-04-15T17:38:32.754Z,42.53
2018-04-15T17:41:00.436Z,43.13
2018-04-15T17:43:28.019Z,41.47
2018-04-15T17:45:55.634Z,44.30
2018-04-15T17:48:23.255Z,41.93
2018-04-15T17:50:50.942Z,43.53
2018-04-15T17:53:18.545Z,44.50
2018-04-15T17:55:46.194Z,44.30
2018-04-15T17:58:13.813Z,44.10
2018-04-15T18:00:41.442Z,43.27
2018-04-15T18:03:09.042Z,42.37
2018-04-15T18:05:36.682Z,50.97
2018-04-15T18:08:05.274Z,46.50
2018-04-15T18:10:32.881Z,43.03
2018-04-15T18:13:01.511Z,45.60
2018-04-15T18:15:29.174Z,43.57
2018-04-15T18:17:56.771Z,45.27
2018-04-15T18:20:24.421Z,43.67
2018-04-15T18:22:52.054Z,43.00
2018-04-15T18:25:19.653Z,41.83
2018-04-15T18:27:47.293Z,42.80
2018-04-15T18:30:14.933Z,42.67
2018-04-15T18:32:42.550Z,44.57
2018-04-15T18:35:10.213Z,41.70
2018-04-15T18:37:37.842Z,43.13
2018-04-15T18:40:05.481Z,43.30
2018-04-15T18:42:33.139Z,44.37
2018-04-15T18:45:00.765Z,41.93
2018-04-15T18:47:28.387Z,43.83
2018-04-15T18:49:56.081Z,45.47
2018-04-15T18:52:23.707Z,42.87
2018-04-15T18:54:51.367Z,42.00
2018-04-15T18:57:19.006Z,44.87
2018-04-15T18:59:46.698Z,42.97
2018-04-15T19:02:14.332Z,42.37
2018-04-15T19:04:41.934Z,44.40
2018-04-15T19:07:09.554Z,41.90
2018-04-15T19:09:37.217Z,43.63
2018-04-15T19:12:04.867Z,41.23
2018-04-15T19:14:32.467Z,43.17
2018-04-15T19:17:00.118Z,41.83
2018-04-15T19:19:27.755Z,41.53
2018-04-15T19:21:55.430Z,41.67
2018-04-15T19:24:23.042Z,43.57
2018-04-15T19:26:50.646Z,41.27
2018-04-15T19:29:18.246Z,40.23
2018-04-15T19:31:45.950Z,41.70
2018-04-15T19:34:13.634Z,41.83
2018-04-15T19:36:41.242Z,40.10
2018-04-15T19:39:08.849Z,40.40
2018-04-15T19:41:36.489Z,40.13
2018-04-15T19:44:04.093Z,39.40
2018-04-15T19:46:31.710Z,41.07
2018-04-15T19:48:59.397Z,40.77
2018-04-15T19:51:27.046Z,43.63
2018-04-15T19:53:54.666Z,43.17
2018-04-15T19:56:22.312Z,43.50
2018-04-15T19:58:49.906Z,41.83
2018-04-15T20:01:17.501Z,43.53
2018-04-15T20:03:45.149Z,41.43
2018-04-15T20:06:12.770Z,44.50
2018-04-15T20:08:40.369Z,43.67
2018-04-15T20:11:08.215Z,43.10
2018-04-15T20:13:35.854Z,43.63
2018-04-15T20:16:03.449Z,45.03
2018-04-15T20:18:31.106Z,44.97
2018-04-15T20:20:58.846Z,45.03
2018-04-15T20:23:26.526Z,47.03
2018-04-15T20:25:54.130Z,45.13
2018-04-15T20:28:21.770Z,48.17
2018-04-15T20:30:49.424Z,45.63
2018-04-15T20:33:17.030Z,45.43
2018-04-15T20:35:44.621Z,44.93
2018-04-15T20:38:12.233Z,44.23
2018-04-15T20:40:39.900Z,45.20
2018-04-15T20:43:07.495Z,46.87
2018-04-15T20:45:35.141Z,46.00
2018-04-15T20:48:02.774Z,43.73
2018-04-15T20:50:30.370Z,46.70
2018-04-15T20:52:57.962Z,44.90
2018-04-15T20:55:25.569Z,44.13
2018-04-15T20:57:53.182Z,44.53
2018-04-15T21:00:20.785Z,43.23
2018-04-15T21:02:48.386Z,44.07
2018-04-15T21:05:16.011Z,43.97
2018-04-15T21:07:43.649Z,44.67
2018-04-15T21:10:11.313Z,44.03
2018-04-15T21:12:38.908Z,45.53
2018-04-15T21:15:06.521Z,46.23
2018-04-15T21:17:34.172Z,44.27
2018-04-15T21:20:01.778Z,44.83
2018-04-15T21:22:29.420Z,44.67
2018-04-15T21:24:57.025Z,43.20
2018-04-15T21:27:24.659Z,42.57
2018-04-15T21:29:52.253Z,44.30
2018-04-15T21:32:19.904Z,43.13
2018-04-15T21:34:47.509Z,38.20
2018-04-15T21:37:15.155Z,39.07
2018-04-15T21:39:42.753Z,35.10
2018-04-15T21:42:10.386Z,36.53
2018-04-15T21:44:37.997Z,33.27
2018-04-15T21:47:05.589Z,31.73
2018-04-15T21:49:33.197Z,29.40
2018-04-15T21:52:00.892Z,26.13
2018-04-15T21:54:28.489Z,21.00
2018-04-15T21:56:56.117Z,21.70
2018-04-15T21:59:23.712Z,20.63
2018-04-15T22:01:51.315Z,19.63
2018-04-15T22:04:18.918Z,19.13
2018-04-15T22:06:46.529Z,18.27
2018-04-15T22:09:14.169Z,17.07
2018-04-15T22:11:53.435Z,15.77
2018-04-15T22:14:21.035Z,15.43
2018-04-15T22:16:48.685Z,14.27
2018-04-15T22:19:16.329Z,14.33
2018-04-15T22:21:43.925Z,14.73
2018-04-15T22:24:11.562Z,12.83
2018-04-15T22:26:39.193Z,12.73
2018-04-15T22:29:06.841Z,12.93
2018-04-15T22:31:34.444Z,12.90
2018-04-15T22:34:02.087Z,11.50
2018-04-15T22:36:29.677Z,13.07
2018-04-15T22:38:57.312Z,12.60
2018-04-15T22:41:24.924Z,11.10
2018-04-15T22:43:52.605Z,12.07
2018-04-15T22:46:20.217Z,10.57
2018-04-15T22:48:47.866Z,10.67
2018-04-15T22:51:15.457Z,10.23
2018-04-15T22:53:43.095Z,9.67
2018-04-15T22:56:10.727Z,9.70
2018-04-15T22:58:44.025Z,8.83
2018-04-15T23:01:11.637Z,10.47
2018-04-15T23:03:39.243Z,9.20
2018-04-15T23:06:06.876Z,9.10
2018-04-15T23:08:34.473Z,9.57
2018-04-15T23:11:02.093Z,9.70
2018-04-15T23:13:29.754Z,10.00
2018-04-15T23:15:57.388Z,9.33
2018-04-15T23:18:25.009Z,9.33
2018-04-15T23:20:52.737Z,9.53
2018-04-15T23:23:20.333Z,9.10
2018-04-15T23:25:47.949Z,9.40
2018-04-15T23:28:15.581Z,8.33
2018-04-15T23:30:43.181Z,9.07
2018-04-15T23:33:10.769Z,9.17
2018-04-15T23:35:38.408Z,10.00
2018-04-15T23:38:06.002Z,9.70
2018-04-15T23:40:33.605Z,9.07
2018-04-15T23:43:02.824Z,10.53
2018-04-15T23:45:30.467Z,10.27
2018-04-15T23:47:58.070Z,10.07
2018-04-15T23:50:25.666Z,10.90
2018-04-15T23:52:53.273Z,11.23
2018-04-15T23:55:20.912Z,10.47
2018-04-15T23:57:48.517Z,10.93
